Latest Weather Observations for Jandakot

IDW60801

Issued at 1:33 pm WST Saturday 29 April 2017 (issued every 30 minutes, with the page automatically refreshed every 10 minutes)

About weather observations | Map of weather stations | Latest weather observations for WA | Other Formats
Station Details ID: 009172 Name: JANDAKOT AERO Lat: -32.10 Lon: 115.88 Height: 30.0 m
Data from the previous 72 hours. | See also: Recent months at Jandakot
Date/Time
WST
Temp
°C
App
Temp
°C
Dew
Point
°C
Rel
Hum
%
Delta-T
°C
Wind Press
QNH
hPa
Press
MSL
hPa
Rain since
9am
mm
Dir  Spd
km/h
Gust
km/h
Spd
kts
Gust
kts
29/01:30pm 26.1 22.9 3.0 22 11.3 W 9 13 5 7 1021.6 1021.5 0.0
29/01:00pm 26.1 22.9 3.0 22 11.3 N 9 28 5 15 1022.1 1022.0 0.0
29/12:30pm 26.1 23.4 3.7 23 11.1 N 7 19 4 10 1022.6 1022.5 0.0
29/12:00pm 25.7 22.1 2.9 22 11.1 NW 11 15 6 8 1023.3 1023.2 0.0
29/11:30am 24.9 22.3 4.4 26 10.2 NNE 7 15 4 8 1023.7 1023.6 0.0
29/11:00am 23.7 21.1 4.4 28 9.5 NNE 7 13 4 7 1024.0 1023.9 0.0
29/10:30am 23.2 20.2 4.2 29 9.3 NE 9 13 5 7 1024.3 1024.2 0.0
29/10:00am 21.7 18.9 5.0 33 8.2 E 9 13 5 7 1024.3 1024.2 0.0
29/09:30am 19.9 16.8 5.7 39 7.0 E 11 13 6 7 1024.4 1024.3 0.0
29/09:00am 18.9 16.1 5.3 41 6.6 E 9 11 5 6 1024.4 1024.3 0.0
29/08:30am 17.1 14.7 5.4 46 5.6 ENE 7 9 4 5 1024.4 1024.3 0.0
29/08:00am 14.8 12.0 5.2 52 4.5 E 9 13 5 7 1024.6 1024.5 0.0
29/07:30am 11.8 8.6 5.0 63 3.1 ESE 11 13 6 7 1024.3 1024.2 0.0
29/07:00am 11.1 8.2 4.4 63 3.0 ESE 9 11 5 6 1024.1 1024.0 0.0
29/06:30am 11.5 8.1 4.1 60 3.3 ESE 11 13 6 7 1024.1 1024.0 0.0
29/06:00am 12.2 8.8 3.9 57 3.7 ESE 11 13 6 7 1024.2 1024.1 0.0
29/05:30am 12.7 9.3 3.8 54 4.0 E 11 17 6 9 1024.1 1024.0 0.0
29/05:00am 11.2 7.1 4.3 62 3.1 ESE 15 17 8 9 1024.0 1023.9 0.0
29/04:30am 10.4 7.1 4.6 67 2.6 SE 11 13 6 7 1024.1 1024.0 0.0
29/04:00am 12.6 7.8 4.4 57 3.7 SE 19 22 10 12 1024.0 1023.9 0.0
29/03:30am 12.3 8.2 4.3 58 3.6 ESE 15 19 8 10 1023.7 1023.6 0.0
29/03:00am 11.9 9.1 5.1 63 3.1 ESE 9 11 5 6 1023.8 1023.7 0.0
29/02:30am 9.5 7.4 6.7 83 1.3 ESE 7 11 4 6 1023.9 1023.8 0.0
29/02:00am 9.9 7.9 6.9 81 1.4 ESE 7 9 4 5 1024.0 1023.9 0.0
29/01:30am 9.4 7.3 6.8 84 1.2 ESE 7 9 4 5 1024.2 1024.1 0.0
29/01:00am 8.9 7.1 7.2 89 0.8 SSE 6 7 3 4 1024.2 1024.1 0.0
29/12:30am 10.0 8.2 7.9 87 1.0 SSE 7 9 4 5 1024.1 1024.0 0.0
29/12:00am 10.0 8.8 8.1 88 0.9 SSE 4 7 2 4 1024.1 1024.0 0.0
 
Date/Time
WST
Temp
°C
App
Temp
°C
Dew
Point
°C
Rel
Hum
%
Delta-T
°C
Wind Press
QNH
hPa
Press
MSL
hPa
Rain since
9am
mm
Dir  Spd
km/h
Gust
km/h
Spd
kts
Gust
kts
28/11:30pm 10.2 8.4 7.9 86 1.1 SSE 7 7 4 4 1024.3 1024.2 0.0
28/11:00pm 11.1 9.7 8.7 85 1.2 SSE 6 7 3 4 1024.6 1024.5 0.0
28/10:30pm 11.1 9.3 7.3 77 1.8 SSE 6 7 3 4 1025.0 1025.0 0.0
28/10:00pm 12.2 12.0 9.2 82 1.5 CALM 0 4 0 2 1025.1 1025.1 0.0
28/09:30pm 12.5 10.9 8.0 74 2.2 S 6 7 3 4 1025.0 1025.0 0.0
28/09:00pm 13.0 11.4 7.9 71 2.5 SSE 6 7 3 4 1025.0 1025.0 0.0
28/08:30pm 14.0 12.5 8.6 70 2.7 SSE 6 7 3 4 1025.0 1025.0 0.0
28/08:00pm 14.0 12.8 9.7 75 2.2 S 6 7 3 4 1024.7 1024.6 0.0
28/07:30pm 15.2 14.1 10.0 71 2.7 SSW 6 9 3 5 1024.6 1024.5 0.0
28/07:00pm 17.2 15.8 9.7 61 3.9 SSW 7 13 4 7 1024.5 1024.4 0.0
28/06:30pm 18.4 17.5 10.6 60 4.2 SSW 6 7 3 4 1024.2 1024.1 0.0
28/06:00pm 19.4 17.8 10.2 55 4.9 SSW 9 11 5 6 1024.0 1023.9 0.0
28/05:30pm 21.0 19.2 12.0 56 5.0 SSW 13 17 7 9 1023.8 1023.7 0.0
28/05:00pm 22.3 20.1 13.4 57 5.1 SW 17 20 9 11 1023.6 1023.5 0.0
28/04:30pm 23.0 20.9 15.1 61 4.7 WSW 20 24 11 13 1023.5 1023.4 0.0
28/04:00pm 23.6 21.0 14.8 57 5.2 WSW 22 28 12 15 1023.5 1023.4 0.0
28/03:30pm 23.7 21.3 15.3 59 5.0 SW 22 28 12 15 1023.4 1023.3 0.0
28/03:00pm 24.1 22.3 16.9 64 4.4 WSW 22 26 12 14 1023.3 1023.2 0.0
28/02:30pm 24.2 22.3 16.7 63 4.6 WSW 22 28 12 15 1023.1 1023.0 0.0
28/02:00pm 24.3 22.3 16.4 61 4.8 W 22 26 12 14 1023.2 1023.1 0.0
28/01:30pm 24.8 23.2 14.9 54 5.9 WSW 17 26 9 14 1023.5 1023.4 0.0
28/01:00pm 25.2 24.9 12.7 45 7.2 WSW 6 15 3 8 1024.0 1023.9 0.0
28/12:30pm 24.9 24.5 12.5 46 7.1 SE 6 11 3 6 1024.5 1024.4 0.0
28/12:00pm 25.2 24.7 12.0 43 7.5 WNW 6 15 3 8 1025.1 1025.1 0.0
28/11:30am 24.7 24.1 11.8 44 7.3 WNW 6 9 3 5 1025.6 1025.6 0.0
28/11:00am 23.6 22.5 10.7 44 7.1 NW 7 11 4 6 1025.9 1025.9 0.0
28/10:30am 22.9 21.6 9.8 43 7.1 N 7 11 4 6 1026.2 1026.2 0.0
28/10:00am 21.9 20.0 7.6 39 7.4 NE 7 11 4 6 1026.4 1026.4 0.0
28/09:30am 20.4 18.0 7.2 42 6.7 ENE 9 11 5 6 1026.5 1026.5 0.0
28/09:00am 18.7 16.9 7.9 49 5.5 ENE 7 9 4 5 1026.6 1026.6 0.0
28/08:30am 16.5 14.8 8.4 58 4.1 ENE 7 9 4 5 1026.5 1026.5 0.0
28/08:00am 13.8 12.4 9.0 73 2.4 ENE 6 7 3 4 1026.4 1026.4 0.0
28/07:30am 9.9 9.0 7.6 85 1.1 E 2 7 1 4 1026.1 1026.1 0.0
28/07:00am 9.1 8.3 6.7 85 1.1 CALM 0 7 0 4 1025.9 1025.9 0.0
28/06:30am 9.3 8.5 6.7 84 1.2 CALM 0 0 0 0 1025.7 1025.7 0.0
28/06:00am 10.1 8.6 6.9 80 1.5 E 4 7 2 4 1025.6 1025.6 0.0
28/05:30am 9.4 6.9 6.4 81 1.4 E 9 13 5 7 1025.5 1025.5 0.0
28/05:00am 10.4 8.5 7.5 82 1.4 ESE 7 9 4 5 1025.3 1025.3 0.0
28/04:30am 10.7 9.1 7.8 82 1.4 E 6 7 3 4 1025.1 1025.1 0.0
28/04:00am 11.3 8.5 7.1 75 2.0 ESE 11 11 6 6 1024.9 1024.8 0.0
28/03:30am 12.0 8.9 7.2 72 2.3 SE 13 15 7 8 1024.8 1024.7 0.0
28/03:00am 12.6 10.4 7.9 73 2.3 S 9 11 5 6 1024.9 1024.8 0.0
28/02:30am 12.6 10.4 7.7 72 2.4 SE 9 11 5 6 1025.0 1025.0 0.0
28/02:00am 13.5 10.8 7.3 66 3.0 ESE 11 13 6 7 1025.0 1025.0 0.0
28/01:30am 12.1 9.8 9.1 82 1.5 ESE 11 15 6 8 1025.1 1025.1 0.0
28/01:00am 11.4 10.1 9.2 86 1.1 SE 6 7 3 4 1025.1 1025.1 0.0
28/12:30am 10.9 9.5 8.7 86 1.1 S 6 7 3 4 1025.1 1025.1 0.0
28/12:00am 12.2 11.1 10.0 86 1.1 SSE 6 7 3 4 1025.2 1025.2 0.0
 
Date/Time
WST
Temp
°C
App
Temp
°C
Dew
Point
°C
Rel
Hum
%
Delta-T
°C
Wind Press
QNH
hPa
Press
MSL
hPa
Rain since
9am
mm
Dir  Spd
km/h
Gust
km/h
Spd
kts
Gust
kts
27/11:30pm 12.9 12.0 10.6 86 1.2 ESE 6 9 3 5 1025.5 1025.5 0.0
27/11:00pm 12.8 11.2 10.3 85 1.3 E 9 11 5 6 1025.6 1025.6 0.0
27/10:30pm 14.9 13.7 11.5 80 1.8 S 9 11 5 6 1025.4 1025.4 0.0
27/10:00pm 15.5 14.0 11.8 78 2.0 S 11 13 6 7 1025.5 1025.5 0.0
27/09:30pm 16.2 14.4 12.0 76 2.3 S 13 15 7 8 1025.6 1025.6 0.0
27/09:00pm 16.5 14.4 11.3 71 2.8 S 13 15 7 8 1025.6 1025.6 0.0
27/08:30pm 16.4 14.7 11.2 71 2.8 S 11 11 6 6 1025.4 1025.4 0.0
27/08:00pm 17.5 15.5 11.4 67 3.3 S 13 15 7 8 1025.2 1025.2 0.0
27/07:30pm 18.0 16.4 11.4 65 3.6 S 11 15 6 8 1025.1 1025.1 0.0
27/07:00pm 18.5 16.8 11.1 62 4.0 S 11 13 6 7 1024.8 1024.7 0.0
27/06:30pm 19.5 17.3 10.8 57 4.7 SSW 13 17 7 9 1024.7 1024.6 0.0
27/06:00pm 20.3 17.5 11.2 56 5.0 SSW 17 24 9 13 1024.6 1024.5 0.0
27/05:30pm 21.5 18.4 11.6 53 5.5 SSW 19 24 10 13 1024.4 1024.3 0.0
27/05:00pm 22.8 19.1 11.5 49 6.3 SSW 22 28 12 15 1024.3 1024.2 0.0
27/04:30pm 23.9 20.1 12.3 48 6.6 SW 24 28 13 15 1024.1 1024.0 0.0
27/04:00pm 24.4 21.4 12.5 47 6.8 SW 20 26 11 14 1024.0 1023.9 0.0
27/03:30pm 24.6 21.7 13.0 48 6.7 SW 20 26 11 14 1023.9 1023.8 0.0
27/03:00pm 24.9 22.1 13.2 48 6.8 WSW 20 26 11 14 1023.8 1023.7 0.0
27/02:30pm 25.1 22.3 13.2 47 6.9 W 20 24 11 13 1023.8 1023.7 0.0
27/02:00pm 25.1 22.6 11.0 41 7.9 W 15 20 8 11 1023.9 1023.8 0.0
27/01:30pm 25.1 21.8 11.0 41 7.9 W 19 22 10 12 1024.2 1024.1 0.0
27/01:00pm 25.6 22.8 10.0 37 8.6 W 15 22 8 12 1024.5 1024.4 0.0
27/12:30pm 25.2 23.8 8.9 35 8.8 W 6 13 3 7 1025.1 1025.1 0.0
27/12:00pm 24.8 23.4 9.0 36 8.5 WNW 6 11 3 6 1025.7 1025.7 0.0
27/11:30am 23.9 22.2 8.5 37 8.2 NNW 7 13 4 7 1026.0 1026.0 0.0
27/11:00am 23.5 21.7 8.1 37 8.1 N 7 15 4 8 1026.2 1026.2 0.0
27/10:30am 23.0 21.5 8.4 39 7.7 NNE 6 11 3 6 1026.7 1026.7 0.0
27/10:00am 22.0 20.5 8.5 42 7.1 NE 6 9 3 5 1026.9 1026.9 0.0
27/09:30am 20.0 18.2 7.9 45 6.2 ENE 7 13 4 7 1027.2 1027.2 0.0
27/09:00am 19.3 17.7 8.7 50 5.5 E 7 9 4 5 1027.3 1027.3 0.0
27/08:30am 17.6 15.5 8.4 55 4.7 ESE 9 11 5 6 1027.3 1027.3 0.0
27/08:00am 15.5 13.8 8.3 62 3.6 ESE 7 11 4 6 1027.1 1027.1 0.0
27/07:30am 12.3 10.7 8.2 76 2.0 SE 6 9 3 5 1026.9 1026.9 0.0
27/07:00am 11.0 8.6 7.0 76 1.9 ESE 9 11 5 6 1026.6 1026.6 0.0
27/06:30am 10.9 8.0 6.6 75 2.0 ESE 11 13 6 7 1026.4 1026.4 0.0
27/06:00am 12.0 9.1 6.7 70 2.5 ESE 11 11 6 6 1026.4 1026.4 0.0
27/05:30am 11.7 8.8 6.4 70 2.5 ESE 11 11 6 6 1026.3 1026.3 0.0
27/05:00am 12.3 9.1 6.8 69 2.6 E 13 15 7 8 1026.2 1026.2 0.0
27/04:30am 12.6 10.1 6.5 66 2.9 ESE 9 13 5 7 1026.1 1026.1 0.0
27/04:00am 14.1 11.7 6.9 62 3.5 E 9 11 5 6 1026.0 1026.0 0.0
27/03:30am 13.8 11.4 7.0 63 3.3 E 9 11 5 6 1025.9 1025.9 0.0
27/03:00am 13.3 10.9 6.8 64 3.1 ESE 9 13 5 7 1026.0 1026.0 0.0
27/02:30am 13.4 10.3 7.2 66 3.0 ESE 13 20 7 11 1026.1 1026.1 0.0
27/02:00am 11.2 9.1 8.3 82 1.4 SE 9 11 5 6 1026.1 1026.1 0.0
27/01:30am 11.4 9.4 8.5 82 1.4 SSE 9 11 5 6 1026.1 1026.1 0.0
27/01:00am 12.5 10.1 8.5 76 2.0 SE 11 13 6 7 1026.1 1026.1 0.0
27/12:30am 12.0 11.8 9.2 83 1.4 CALM 0 6 0 3 1026.1 1026.1 0.0
27/12:00am 12.2 10.7 8.3 77 1.9 S 6 7 3 4 1026.1 1026.1 0.0
 
Date/Time
WST
Temp
°C
App
Temp
°C
Dew
Point
°C
Rel
Hum
%
Delta-T
°C
Wind Press
QNH
hPa
Press
MSL
hPa
Rain since
9am
mm
Dir  Spd
km/h
Gust
km/h
Spd
kts
Gust
kts
26/11:30pm 13.2 13.1 9.5 78 1.9 CALM 0 7 0 4 1026.2 1026.2 0.0
26/11:00pm 14.2 12.8 9.7 74 2.3 S 7 9 4 5 1026.3 1026.3 0.0
26/10:30pm 14.5 12.4 9.6 72 2.5 S 11 13 6 7 1026.5 1026.5 0.0
26/10:00pm 15.2 12.7 9.6 69 2.9 S 13 15 7 8 1026.6 1026.6 0.0
26/09:30pm 15.7 13.1 9.5 66 3.2 S 13 17 7 9 1026.6 1026.6 0.0
26/09:00pm 16.5 14.0 9.6 63 3.6 S 13 17 7 9 1026.4 1026.4 0.0
26/08:30pm 17.1 14.2 9.6 61 3.9 S 15 19 8 10 1026.2 1026.2 0.0
26/08:00pm 17.9 14.6 9.5 58 4.4 S 17 22 9 12 1026.1 1026.1 0.0
26/07:30pm 18.3 15.1 10.0 58 4.4 S 17 20 9 11 1025.9 1025.9 0.0
26/07:00pm 18.9 16.8 11.2 61 4.2 S 13 19 7 10 1025.7 1025.7 0.0
26/06:30pm 19.9 17.7 10.7 55 5.0 S 13 19 7 10 1025.4 1025.4 0.0
26/06:00pm 20.6 17.5 10.2 51 5.6 SSW 17 22 9 12 1025.1 1025.1 0.0
26/05:30pm 20.9 17.4 10.1 50 5.8 SSW 19 24 10 13 1024.9 1024.8 0.0
26/05:00pm 21.2 17.3 10.8 51 5.7 SW 22 28 12 15 1024.9 1024.8 0.0
26/04:30pm 22.3 18.4 9.4 43 6.9 SSW 20 26 11 14 1024.8 1024.7 0.0
26/04:00pm 23.8 19.4 8.8 38 8.0 SW 22 26 12 14 1024.8 1024.7 0.0
26/03:30pm 23.4 18.6 8.8 39 7.8 SW 24 32 13 17 1024.9 1024.8 0.0
26/03:00pm 24.2 19.3 8.4 36 8.4 SW 24 28 13 15 1024.7 1024.6 0.0
26/02:30pm 23.8 20.1 10.3 42 7.4 SW 20 26 11 14 1024.8 1024.7 0.0
26/02:00pm 24.8 22.1 7.2 32 9.2 SW 11 22 6 12 1024.8 1024.7 0.0

Other Formats:

Comma delimited format used in spreadsheet applications
http://www.bom.gov.au/fwo/IDW60801/IDW60801.94609.axf

JavaScript Object Notation format (JSON) in row-major order
http://www.bom.gov.au/fwo/IDW60801/IDW60801.94609.json